createdAt,value
2023-02-25T00:02:38.548Z,98459.41
2023-02-25T00:09:21.020Z,98449.91
2023-02-25T00:16:05.184Z,98449.06
2023-02-25T00:22:47.608Z,98433.63
2023-02-25T00:29:30.183Z,98424.25
2023-02-25T00:36:19.008Z,98425.22
2023-02-25T00:43:01.775Z,98414.09
2023-02-25T00:49:49.593Z,98405.47
2023-02-25T00:56:31.973Z,98403.81
2023-02-25T01:03:14.392Z,98396.91
2023-02-25T01:09:57.698Z,98377.91
2023-02-25T01:16:40.229Z,98383.25
2023-02-25T01:23:23.407Z,98375.53
2023-02-25T01:30:08.519Z,98372.22
2023-02-25T01:36:51.422Z,98366.25
2023-02-25T01:43:36.864Z,98354.19
2023-02-25T01:50:22.524Z,98339.53
2023-02-25T01:57:12.129Z,98342.19
2023-02-25T02:03:56.002Z,98342.19
2023-02-25T02:10:38.586Z,98334.56
2023-02-25T02:17:40.173Z,98330.16
2023-02-25T02:24:51.636Z,98327.56
2023-02-25T02:31:57.966Z,98330.16
2023-02-25T02:39:06.933Z,98318.91
2023-02-25T02:46:14.625Z,98323.09
2023-02-25T03:00:36.722Z,98305.63
2023-02-25T03:07:21.926Z,98306.28
2023-02-25T03:14:07.314Z,98294.09
2023-02-25T03:20:54.420Z,98300.09
2023-02-25T03:27:42.172Z,98296.41
2023-02-25T03:34:38.233Z,98299.81
2023-02-25T03:41:25.418Z,98294.53
2023-02-25T03:48:11.022Z,98293.63
2023-02-25T03:54:55.938Z,98287.56
2023-02-25T04:01:40.668Z,98287.56
2023-02-25T04:08:23.387Z,98293.63
2023-02-25T04:15:09.880Z,98286.75
2023-02-25T04:21:52.475Z,98276.41
2023-02-25T04:28:34.788Z,98274.59
2023-02-25T04:35:20.580Z,98281.56
2023-02-25T04:42:03.154Z,98269.47
2023-02-25T04:48:45.510Z,98265.19
2023-02-25T04:55:28.428Z,98274.78
2023-02-25T05:02:10.802Z,98268.81
2023-02-25T05:08:54.747Z,98268.84
2023-02-25T05:15:37.083Z,98262.88
2023-02-25T05:22:19.657Z,98266.44
2023-02-25T05:29:02.198Z,98266.53
2023-02-25T05:35:44.936Z,98261.50
2023-02-25T05:42:28.856Z,98268.53
2023-02-25T05:49:11.934Z,98278.38
2023-02-25T05:55:54.336Z,98277.69
2023-02-25T06:02:37.393Z,98277.03
2023-02-25T06:09:21.539Z,98279.78
2023-02-25T06:16:06.110Z,98287.63
2023-02-25T06:22:48.718Z,98290.22
2023-02-25T06:29:31.118Z,98288.44
2023-02-25T06:36:15.746Z,98298.75
2023-02-25T06:42:58.091Z,98296.13
2023-02-25T06:49:40.749Z,98296.97
2023-02-25T06:56:23.682Z,98308.19
2023-02-25T07:10:30.508Z,98312.28
2023-02-25T07:17:13.789Z,98314.78
2023-02-25T07:23:58.966Z,98310.34
2023-02-25T07:30:41.336Z,98313.72
2023-02-25T07:37:23.618Z,98321.34
2023-02-25T07:44:07.186Z,98330.81
2023-02-25T07:50:49.464Z,98332.56
2023-02-25T07:57:35.832Z,98331.72
2023-02-25T08:04:18.776Z,98337.75
2023-02-25T08:11:10.896Z,98335.16
2023-02-25T08:17:55.909Z,98338.28
2023-02-25T08:24:43.562Z,98336.13
2023-02-25T08:32:03.391Z,98349.34
2023-02-25T08:38:52.873Z,98338.16
2023-02-25T08:45:40.602Z,98353.22
2023-02-25T08:52:24.009Z,98363.69
2023-02-25T08:59:25.200Z,98375.84
2023-02-25T09:06:12.855Z,98379.50
2023-02-25T09:13:10.455Z,98384.75
2023-02-25T09:19:57.408Z,98387.97
2023-02-25T09:26:40.142Z,98400.78
2023-02-25T09:33:22.678Z,98402.44
2023-02-25T09:40:09.646Z,98405.16
2023-02-25T09:47:58.372Z,98416.31
2023-02-25T09:54:48.554Z,98421.53
2023-02-25T10:01:45.686Z,98428.28
2023-02-25T10:08:54.367Z,98430.69
2023-02-25T10:15:50.437Z,98446.25
2023-02-25T10:22:41.123Z,98453.72
2023-02-25T10:29:49.707Z,98461.94
2023-02-25T10:36:46.497Z,98456.56
2023-02-25T10:44:21.215Z,98469.00
2023-02-25T10:51:23.708Z,98484.63
2023-02-25T10:58:38.752Z,98475.56
2023-02-25T11:05:33.232Z,98485.88
2023-02-25T11:12:21.259Z,98489.66
2023-02-25T11:19:31.699Z,98505.56
2023-02-25T11:26:49.409Z,98507.88
2023-02-25T11:33:36.782Z,98515.31
2023-02-25T11:40:41.142Z,98525.91
2023-02-25T11:47:38.416Z,98533.59
2023-02-25T11:54:52.433Z,98546.66
2023-02-25T12:02:16.419Z,98562.50
2023-02-25T12:09:49.692Z,98575.78
2023-02-25T12:17:10.400Z,98584.59
2023-02-25T12:24:30.327Z,98585.34
2023-02-25T12:31:54.208Z,98602.72
2023-02-25T12:39:46.816Z,98613.22
2023-02-25T12:47:07.760Z,98625.63
2023-02-25T12:54:24.110Z,98642.34
2023-02-25T13:02:15.897Z,98656.50
2023-02-25T13:09:28.939Z,98665.38
2023-02-25T13:17:26.044Z,98685.47
2023-02-25T13:24:50.053Z,98689.91
2023-02-25T13:31:42.152Z,98704.84
2023-02-25T13:39:03.032Z,98724.09
2023-02-25T13:46:35.819Z,98741.63
2023-02-25T13:53:44.055Z,98767.81
2023-02-25T14:00:59.436Z,98770.66
2023-02-25T14:08:16.618Z,98795.00
2023-02-25T14:15:23.705Z,98818.47
2023-02-25T14:22:43.033Z,98821.06
2023-02-25T14:29:59.365Z,98856.56
2023-02-25T14:37:35.438Z,98861.88
2023-02-25T14:44:43.720Z,98874.88
2023-02-25T14:52:08.830Z,98894.88
2023-02-25T14:59:06.424Z,98920.06
2023-02-25T15:06:20.260Z,98938.31
2023-02-25T15:13:35.646Z,98953.94
2023-02-25T15:20:40.199Z,98969.72
2023-02-25T15:27:37.009Z,98993.25
2023-02-25T15:34:23.019Z,99004.66
2023-02-25T15:41:28.028Z,99024.59
2023-02-25T15:48:10.250Z,99029.84
2023-02-25T15:54:53.016Z,99048.84
2023-02-25T16:01:42.666Z,99067.84
2023-02-25T16:08:31.421Z,99078.25
2023-02-25T16:15:42.131Z,99109.34
2023-02-25T16:22:29.828Z,99121.50
2023-02-25T16:29:43.912Z,99137.06
2023-02-25T16:36:44.707Z,99170.75
2023-02-25T16:43:33.217Z,99168.19
2023-02-25T16:50:20.027Z,99195.84
2023-02-25T16:57:07.858Z,99210.53
2023-02-25T17:03:50.300Z,99236.44
2023-02-25T17:10:50.741Z,99245.91
2023-02-25T17:17:40.533Z,99256.31
2023-02-25T17:24:29.434Z,99265.81
2023-02-25T17:31:18.209Z,99276.16
2023-02-25T17:38:00.950Z,99286.50
2023-02-25T17:44:45.210Z,99296.00
2023-02-25T17:51:34.842Z,99293.44
2023-02-25T17:58:23.802Z,99311.56
2023-02-25T18:05:22.396Z,99325.38
2023-02-25T18:12:17.387Z,99334.88
2023-02-25T18:19:00.142Z,99358.16
2023-02-25T18:25:45.951Z,99358.16
2023-02-25T18:32:28.311Z,99368.53
2023-02-25T18:39:13.279Z,99373.72
2023-02-25T18:45:55.487Z,99397.03
2023-02-25T18:52:38.934Z,99397.88
2023-02-25T18:59:21.177Z,99425.53
2023-02-25T19:06:04.463Z,99419.44
2023-02-25T19:12:50.884Z,99428.09
2023-02-25T19:19:33.173Z,99447.94
2023-02-25T19:26:16.219Z,99455.72
2023-02-25T19:33:03.534Z,99462.63
2023-02-25T19:39:47.931Z,99479.03
2023-02-25T19:46:30.305Z,99493.69
2023-02-25T19:53:12.691Z,99505.81
2023-02-25T19:59:54.984Z,99512.72
2023-02-25T20:06:38.712Z,99527.41
2023-02-25T20:13:21.298Z,99550.72
2023-02-25T20:20:04.941Z,99549.84
2023-02-25T20:26:47.188Z,99571.44
2023-02-25T20:33:30.034Z,99577.47
2023-02-25T20:40:13.014Z,99581.81
2023-02-25T20:46:55.550Z,99591.28
2023-02-25T20:53:38.345Z,99603.38
2023-02-25T21:00:21.872Z,99607.69
2023-02-25T21:07:07.123Z,99625.00
2023-02-25T21:13:53.402Z,99634.50
2023-02-25T21:20:35.747Z,99662.13
2023-02-25T21:27:18.868Z,99669.88
2023-02-25T21:34:03.039Z,99685.34
2023-02-25T21:40:45.613Z,99693.97
2023-02-25T21:47:28.111Z,99689.59
2023-02-25T21:54:10.816Z,99699.06
2023-02-25T22:00:53.218Z,99703.34
2023-02-25T22:07:36.217Z,99719.72
2023-02-25T22:14:18.478Z,99715.38
2023-02-25T22:21:22.875Z,99722.25
2023-02-25T22:28:08.873Z,99747.22
2023-02-25T22:34:51.864Z,99770.50
2023-02-25T22:41:35.333Z,99784.31
2023-02-25T22:48:17.725Z,99787.78
2023-02-25T22:55:00.045Z,99795.56
2023-02-25T23:01:42.662Z,99809.41
2023-02-25T23:08:25.326Z,99818.00
2023-02-25T23:15:09.452Z,99824.84
2023-02-25T23:21:51.779Z,99830.88
2023-02-25T23:28:35.716Z,99838.63
2023-02-25T23:35:18.584Z,99842.09
2023-02-25T23:42:01.088Z,99855.03
2023-02-25T23:48:43.366Z,99864.53
2023-02-25T23:55:26.000Z,99874.91
